Snodland, United Kingdom
Current Conditions -  °F | °C
As of 9:20 AM on Thursday 27 Nov 2014 (Local Time) from EGKB Reporting Station
Haze Haze  
Wind Chill: 44°   Ceiling: 3000
Heat Index: 46°   Visibility: 3mi
Dew Point: 45°   Wind: 5mph
Humidity: 93%   Direction: 210°SSW
Pressure: 29.62"   Gusts: NA
Location:  51.33°N, 0.44°E
Report Text: EGKB 270920Z 21004KT 170V250 5000 HZ SCT005 BKN030 08/07 Q1003
Loading
Personal Weather Stations






























Interactive Weather Map New forecast layout! Learn more

10-Day Weather Forecast

Advertisements
Track Severe Weather on mobile